Time;durP1;ratioP1;P1;durP2;ratioP2;P2;SDS_P1;SDS_P2;PMS_P1;PMS_P2;Temp;Humidity;BMP_temperature;BMP_pressure;BME280_temperature;BME280_humidity;BME280_pressure;Samples;Min_cycle;Max_cycle;Signal;HPM_P1;HPM_P2
2022/12/25 00:00:38;;;;;;;41.30;11.43;;;;;;;12.46;100.00;101302.75;5118080;28;20035;-53
2022/12/25 00:03:03;;;;;;;43.57;12.07;;;;;;;12.63;100.00;101299.72;5125171;28;20272;-57
2022/12/25 00:05:29;;;;;;;36.33;10.50;;;;;;;12.56;100.00;101309.59;5124931;28;20278;-55
2022/12/25 00:07:54;;;;;;;37.17;11.50;;;;;;;12.41;100.00;101299.00;5127273;28;20051;-53
2022/12/25 00:10:20;;;;;;;38.40;12.25;;;;;;;12.26;100.00;101299.09;5124091;28;20031;-52
2022/12/25 00:12:46;;;;;;;34.27;10.07;;;;;;;12.65;100.00;101295.00;5127445;28;20024;-51
2022/12/25 00:15:11;;;;;;;48.23;11.73;;;;;;;12.64;100.00;101293.34;5110517;28;20052;-54
2022/12/25 00:17:36;;;;;;;30.27;9.18;;;;;;;12.47;100.00;101293.69;5124377;28;20027;-52
2022/12/25 00:20:02;;;;;;;46.85;11.55;;;;;;;12.47;100.00;101285.63;5127721;28;20034;-55
2022/12/25 00:22:29;;;;;;;65.93;11.95;;;;;;;12.38;100.00;101292.16;5119654;28;20024;-55
2022/12/25 00:24:54;;;;;;;42.90;10.25;;;;;;;12.41;100.00;101289.06;5124954;28;20036;-52
2022/12/25 00:27:20;;;;;;;41.60;11.33;;;;;;;12.55;100.00;101294.53;5106583;28;20035;-54
2022/12/25 00:29:45;;;;;;;41.15;10.85;;;;;;;12.43;100.00;101295.06;5108358;28;20050;-56
2022/12/25 00:32:11;;;;;;;43.03;10.30;;;;;;;12.47;100.00;101291.00;5103587;28;20090;-52
2022/12/25 00:34:36;;;;;;;37.87;10.27;;;;;;;12.45;100.00;101279.59;5106383;28;20028;-50
2022/12/25 00:37:02;;;;;;;44.17;12.60;;;;;;;12.51;100.00;101271.81;5105694;28;20059;-50
2022/12/25 00:39:28;;;;;;;42.70;9.77;;;;;;;12.31;100.00;101275.19;5103285;28;20054;-50
2022/12/25 00:44:38;;;;;;;38.37;9.60;;;;;;;12.30;100.00;101287.78;5103458;28;20033;-51
2022/12/25 00:47:03;;;;;;;37.27;9.87;;;;;;;12.26;100.00;101288.38;5105828;28;20304;-55
2022/12/25 00:49:29;;;;;;;41.10;11.07;;;;;;;12.45;100.00;101294.88;5105043;28;20060;-56
2022/12/25 00:51:54;;;;;;;42.87;11.17;;;;;;;12.69;100.00;101288.22;5108771;28;20032;-52
2022/12/25 00:54:20;;;;;;;29.58;10.63;;;;;;;12.59;100.00;101288.59;5103181;28;20066;-50
2022/12/25 00:56:46;;;;;;;24.17;10.37;;;;;;;12.58;100.00;101286.09;5102656;28;20081;-53
2022/12/25 00:59:12;;;;;;;35.07;10.00;;;;;;;12.24;100.00;101277.84;5097037;28;20280;-53
2022/12/25 01:01:37;;;;;;;42.35;11.95;;;;;;;12.40;100.00;101281.25;5105140;28;20047;-56
2022/12/25 01:04:04;;;;;;;51.75;9.75;;;;;;;12.18;100.00;101276.75;5100827;28;20044;-52
2022/12/25 01:06:30;;;;;;;42.28;10.32;;;;;;;12.30;100.00;101282.41;5101429;28;20036;-54
2022/12/25 01:11:40;;;;;;;37.97;10.50;;;;;;;12.38;100.00;101283.31;5103044;28;20064;-54
2022/12/25 01:14:06;;;;;;;38.53;11.63;;;;;;;12.30;100.00;101285.09;5102476;28;20276;-52
2022/12/25 01:16:31;;;;;;;34.55;10.77;;;;;;;12.43;100.00;101295.06;5099675;28;20646;-55
2022/12/25 01:18:57;;;;;;;40.97;10.77;;;;;;;12.23;100.00;101296.81;5103138;28;20052;-55
2022/12/25 01:21:23;;;;;;;41.85;9.57;;;;;;;12.36;100.00;101296.88;5095040;28;20027;-56
2022/12/25 01:23:51;;;;;;;51.08;11.55;;;;;;;12.25;100.00;101297.44;5095465;28;20044;-51
2022/12/25 01:26:18;;;;;;;54.20;12.23;;;;;;;12.24;100.00;101299.28;5101208;28;20032;-52
2022/12/25 01:28:43;;;;;;;;;;;;;;;12.32;100.00;101291.09;5101996;28;20273;-53
2022/12/25 01:31:11;;;;;;;33.83;9.87;;;;;;;12.34;100.00;101298.94;5099752;28;19916;-53
2022/12/25 01:33:37;;;;;;;34.80;10.70;;;;;;;12.46;100.00;101309.97;5118009;28;20055;-55
2022/12/25 01:36:10;;;;;;;36.93;11.10;;;;;;;12.45;100.00;101309.13;5119343;28;20274;-55
2022/12/25 01:38:36;;;;;;;36.57;11.10;;;;;;;12.40;100.00;101308.88;5121895;28;20295;-54
2022/12/25 01:41:02;;;;;;;41.63;11.50;;;;;;;12.50;100.00;101307.72;5123023;28;20276;-55
2022/12/25 01:43:31;;;;;;;33.57;9.67;;;;;;;12.50;100.00;101300.50;5120252;28;20036;-56
2022/12/25 01:45:57;;;;;;;31.10;10.97;;;;;;;12.84;100.00;101303.34;5118697;28;20078;-55
2022/12/25 01:48:33;;;;;;;37.05;10.45;;;;;;;12.75;100.00;101300.84;5118428;28;20261;-56
2022/12/25 01:51:05;;;;;;;38.23;9.73;;;;;;;12.61;100.00;101304.47;5115571;28;20105;-53
2022/12/25 01:53:32;;;;;;;34.83;9.30;;;;;;;12.79;100.00;101301.25;5118808;28;20344;-55
2022/12/25 01:56:03;;;;;;;48.13;10.25;;;;;;;12.69;100.00;101304.34;5117387;28;20306;-53
2022/12/25 01:58:30;;;;;;;28.53;10.40;;;;;;;12.81;100.00;101309.13;5120465;28;20023;-51
2022/12/25 02:00:56;;;;;;;38.42;9.93;;;;;;;12.72;100.00;101314.66;5116742;28;20336;-55
2022/12/25 02:03:22;;;;;;;37.90;10.23;;;;;;;12.57;100.00;101312.09;5120633;28;20028;-54
2022/12/25 02:05:49;;;;;;;43.92;11.45;;;;;;;12.47;100.00;101316.97;5117644;28;20031;-55
2022/12/25 02:08:17;;;;;;;32.73;10.07;;;;;;;12.46;100.00;101313.47;5123102;28;20031;-54
2022/12/25 02:10:43;;;;;;;29.87;9.63;;;;;;;12.42;100.00;101306.81;5118995;28;20308;-55
2022/12/25 02:13:12;;;;;;;37.30;9.82;;;;;;;12.61;100.00;101305.31;5118859;28;20287;-54
2022/12/25 02:15:44;;;;;;;28.00;10.33;;;;;;;12.79;100.00;101297.75;5115676;28;20038;-55
2022/12/25 02:18:22;;;;;;;35.40;10.00;;;;;;;12.84;100.00;101303.34;5118294;28;20271;-54
2022/12/25 02:21:15;;;;;;;45.67;11.03;;;;;;;12.68;100.00;101301.84;5115073;28;20306;-54
2022/12/25 02:23:48;;;;;;;43.37;11.93;;;;;;;12.39;100.00;101301.03;5120777;28;20257;-51
2022/12/25 02:26:32;;;;;;;44.83;10.30;;;;;;;12.50;100.00;101300.50;5119880;28;20292;-53
2022/12/25 02:29:08;;;;;;;32.93;10.53;;;;;;;12.63;100.00;101297.06;5119817;28;20275;-54
2022/12/25 02:31:42;;;;;;;32.65;10.77;;;;;;;12.51;100.00;101298.66;5121312;28;20303;-55
2022/12/25 02:34:43;;;;;;;36.23;10.50;;;;;;;12.44;100.00;101293.22;5119898;28;20047;-55
2022/12/25 02:37:18;;;;;;;36.83;9.37;;;;;;;12.56;100.00;101293.50;5117557;28;20280;-54
2022/12/25 02:39:59;;;;;;;32.23;10.23;;;;;;;12.28;100.00;101291.69;5121992;28;20267;-55
2022/12/25 03:08:05;;;;;;;27.93;10.13;;;;;;;11.86;100.00;101254.00;5120284;28;20039;-56
2022/12/25 03:13:26;;;;;;;31.57;10.07;;;;;;;12.17;100.00;101237.56;5116508;28;20300;-52
2022/12/25 03:18:37;;;;;;;30.33;9.30;;;;;;;12.25;100.00;101223.19;5117958;28;20264;-50
2022/12/25 03:32:32;;;;;;;29.57;9.60;;;;;;;12.22;100.00;101218.22;5120312;28;20279;-55
2022/12/25 03:35:45;;;;;;;29.17;10.90;;;;;;;12.47;100.00;101221.25;5118783;28;20291;-55
2022/12/25 03:39:02;;;;;;;31.60;10.20;;;;;;;12.32;100.00;101224.03;5119108;28;20316;-56
2022/12/25 03:48:08;;;;;;;30.97;9.27;;;;;;;12.53;100.00;101208.06;5126787;28;20280;-56
2022/12/25 04:37:19;;;;;;;23.73;8.20;;;;;;;12.18;100.00;101233.03;5125488;28;20261;-56
2022/12/25 04:39:44;;;;;;;31.55;8.15;;;;;;;12.03;100.00;101233.16;5124061;28;20359;-55
2022/12/25 04:42:10;;;;;;;22.80;8.37;;;;;;;12.09;100.00;101227.00;5127704;28;20027;-53
2022/12/25 04:44:35;;;;;;;27.73;9.87;;;;;;;11.94;100.00;101226.22;5126408;28;20050;-56
2022/12/25 04:47:01;;;;;;;27.60;8.97;;;;;;;12.14;100.00;101219.19;5123712;28;20039;-55
2022/12/25 04:49:27;;;;;;;36.88;10.23;;;;;;;12.28;100.00;101221.97;5124823;28;20024;-58
2022/12/25 04:51:52;;;;;;;30.80;9.37;;;;;;;11.98;100.00;101217.63;5121679;28;20069;-54
2022/12/25 04:54:18;;;;;;;28.90;9.30;;;;;;;12.13;100.00;101214.03;5124897;28;20323;-56
2022/12/25 04:56:43;;;;;;;31.90;8.93;;;;;;;11.90;100.00;101215.91;5126154;28;20035;-53
2022/12/25 04:59:09;;;;;;;24.80;8.63;;;;;;;12.13;100.00;101208.69;5118989;28;20275;-53
2022/12/25 05:01:34;;;;;;;23.20;8.27;;;;;;;12.11;100.00;101210.69;5123529;28;20146;-56
2022/12/25 05:04:00;;;;;;;21.63;8.90;;;;;;;12.00;100.00;101209.38;5120445;28;20038;-56
2022/12/25 05:06:26;;;;;;;23.60;8.20;;;;;;;12.05;100.00;101198.94;5122481;28;20027;-57
2022/12/25 05:08:52;;;;;;;25.80;9.23;;;;;;;12.07;100.00;101199.56;5123826;28;20031;-56
2022/12/25 05:11:17;;;;;;;20.63;9.17;;;;;;;12.06;100.00;101197.91;5120998;28;20100;-53
2022/12/25 05:13:43;;;;;;;22.23;8.43;;;;;;;11.91;100.00;101190.75;5124327;28;20040;-58
2022/12/25 05:16:15;;;;;;;24.07;8.33;;;;;;;11.95;100.00;101187.69;5125661;28;20031;-53
2022/12/25 05:18:41;;;;;;;25.87;9.43;;;;;;;11.86;100.00;101182.47;5126203;28;20024;-56
2022/12/25 05:21:06;;;;;;;26.67;7.87;;;;;;;11.68;100.00;101195.53;5123720;28;20336;-54
2022/12/25 05:23:32;;;;;;;20.30;8.13;;;;;;;11.77;100.00;101192.53;5123285;28;20053;-53
2022/12/25 05:26:03;;;;;;;21.95;8.90;;;;;;;11.74;100.00;101189.38;5125455;28;20107;-53
2022/12/25 05:28:29;;;;;;;24.47;8.77;;;;;;;11.81;100.00;101184.94;5123800;28;20035;-57
2022/12/25 05:30:57;;;;;;;23.50;9.13;;;;;;;11.87;100.00;101188.66;5123522;28;20281;-52
2022/12/25 05:33:23;;;;;;;19.47;8.63;;;;;;;11.68;100.00;101184.81;5121107;28;20131;-54
2022/12/25 05:35:50;;;;;;;;;;;;;;;11.72;100.00;101170.84;5121841;28;20296;-56
2022/12/25 05:38:16;;;;;;;24.93;8.00;;;;;;;11.85;100.00;101170.13;5120777;28;19946;-55
2022/12/25 05:40:41;;;;;;;21.53;8.67;;;;;;;11.73;100.00;101174.34;5124919;28;20264;-55
2022/12/25 05:43:07;;;;;;;19.07;7.37;;;;;;;11.84;100.00;101173.81;5120889;28;20048;-54
2022/12/25 05:45:32;;;;;;;33.70;9.00;;;;;;;11.85;100.00;101162.06;5122972;28;20031;-57
2022/12/25 05:47:58;;;;;;;20.37;8.50;;;;;;;11.78;100.00;101158.53;5119763;28;20342;-54
2022/12/25 05:50:23;;;;;;;27.80;9.40;;;;;;;11.79;100.00;101159.34;5120802;28;20277;-56
2022/12/25 05:53:10;;;;;;;22.13;7.73;;;;;;;11.99;100.00;101159.47;5121755;28;20418;-53
2022/12/25 05:55:38;;;;;;;17.63;8.00;;;;;;;12.04;100.00;101162.44;5119813;28;20272;-51
2022/12/25 05:58:05;;;;;;;26.73;7.77;;;;;;;12.11;100.00;101165.13;5120477;28;20290;-55
2022/12/25 06:00:32;;;;;;;24.00;8.63;;;;;;;11.98;100.00;101160.47;5121495;28;20331;-51
2022/12/25 06:02:57;;;;;;;25.58;7.82;;;;;;;11.85;100.00;101159.38;5122711;28;20282;-53
2022/12/25 06:05:23;;;;;;;18.23;6.23;;;;;;;11.81;100.00;101158.13;5122179;28;20035;-53
2022/12/25 06:07:49;;;;;;;18.45;6.82;;;;;;;11.74;100.00;101154.56;5126608;28;20028;-53
2022/12/25 06:10:15;;;;;;;22.90;7.20;;;;;;;11.90;100.00;101151.59;5123164;28;20038;-53
2022/12/25 06:12:41;;;;;;;17.13;7.63;;;;;;;11.93;100.00;101136.13;5121894;28;20032;-57
2022/12/25 06:15:07;;;;;;;30.63;7.27;;;;;;;11.96;100.00;101133.91;5122343;28;20042;-53
2022/12/25 06:17:33;;;;;;;17.75;6.93;;;;;;;12.01;100.00;101130.66;5123870;28;20065;-54
2022/12/25 06:19:58;;;;;;;27.60;6.90;;;;;;;12.23;100.00;101139.44;5122224;28;20035;-55
2022/12/25 06:22:28;;;;;;;34.33;8.20;;;;;;;12.20;100.00;101139.81;5121853;28;20070;-54
2022/12/25 06:24:53;;;;;;;20.00;6.43;;;;;;;12.09;100.00;101156.47;5119206;28;20290;-54
2022/12/25 06:27:19;;;;;;;14.80;7.03;;;;;;;12.14;100.00;101140.63;5119377;28;20359;-54
2022/12/25 06:29:44;;;;;;;15.88;6.80;;;;;;;12.14;100.00;101146.81;5121174;28;20059;-56
2022/12/25 06:32:10;;;;;;;27.00;7.70;;;;;;;11.45;100.00;101154.56;5120843;28;20052;-53
2022/12/25 06:34:35;;;;;;;23.13;7.47;;;;;;;11.98;100.00;101141.72;5122884;28;20036;-54
2022/12/25 06:37:01;;;;;;;21.80;6.80;;;;;;;12.13;100.00;101123.69;5122790;28;20027;-51
2022/12/25 06:39:26;;;;;;;18.27;7.20;;;;;;;12.14;100.00;101129.91;5125914;28;20085;-56
2022/12/25 06:41:52;;;;;;;14.03;6.20;;;;;;;12.11;100.00;101128.44;5118565;28;20303;-56
2022/12/25 06:44:17;;;;;;;12.88;6.38;;;;;;;12.05;100.00;101118.50;5122132;28;20114;-50
2022/12/25 06:46:43;;;;;;;18.73;7.07;;;;;;;12.05;100.00;101113.97;5118235;28;20031;-56
2022/12/25 06:49:09;;;;;;;11.90;6.10;;;;;;;12.03;100.00;101120.56;5124022;28;20032;-53
2022/12/25 06:51:34;;;;;;;15.37;7.13;;;;;;;12.30;100.00;101118.81;5122628;28;20361;-52
2022/12/25 06:54:03;;;;;;;18.65;6.22;;;;;;;12.51;100.00;101110.88;5103688;28;20035;-56
2022/12/25 06:56:29;;;;;;;16.93;6.50;;;;;;;12.59;100.00;101110.66;5101444;28;20036;-54
2022/12/25 06:58:57;;;;;;;19.70;6.25;;;;;;;12.49;100.00;101105.69;5120094;28;20294;-56
2022/12/25 07:01:23;;;;;;;16.63;6.17;;;;;;;12.30;100.00;101092.00;5120343;28;20031;-56
2022/12/25 07:03:52;;;;;;;13.93;5.97;;;;;;;12.50;100.00;101079.72;5121636;28;20275;-57
2022/12/25 07:06:18;;;;;;;16.90;5.57;;;;;;;12.67;100.00;101083.66;5118350;28;20077;-53
2022/12/25 07:08:43;;;;;;;14.20;5.10;;;;;;;12.65;100.00;101079.53;5123745;28;20269;-53
2022/12/25 07:11:09;;;;;;;14.27;6.68;;;;;;;12.73;100.00;101092.75;5121953;28;20028;-56
2022/12/25 07:13:34;;;;;;;10.53;5.03;;;;;;;12.74;100.00;101089.03;5121258;28;20103;-56
2022/12/25 07:16:02;;;;;;;12.00;4.90;;;;;;;12.70;100.00;101095.84;5119584;28;20270;-51
2022/12/25 07:18:28;;;;;;;16.97;6.07;;;;;;;12.79;100.00;101110.72;5117042;28;20032;-58
2022/12/25 07:20:54;;;;;;;12.57;5.38;;;;;;;12.85;100.00;101114.44;5120532;28;20291;-55
2022/12/25 07:23:21;;;;;;;12.45;5.68;;;;;;;12.84;100.00;101112.78;5116952;28;20054;-52
2022/12/25 07:25:58;;;;;;;16.60;5.60;;;;;;;12.89;100.00;101118.38;5120592;28;20030;-51
2022/12/25 07:28:24;;;;;;;15.50;5.33;;;;;;;12.90;100.00;101122.69;5120396;28;20103;-55
2022/12/25 07:30:50;;;;;;;17.57;4.97;;;;;;;12.97;100.00;101128.09;5117352;28;20074;-52
2022/12/25 07:33:16;;;;;;;13.03;5.50;;;;;;;12.85;100.00;101125.19;5120050;28;20344;-52
2022/12/25 07:35:43;;;;;;;11.93;5.10;;;;;;;12.74;100.00;101119.38;5120208;28;20030;-51
2022/12/25 07:38:08;;;;;;;17.83;5.30;;;;;;;12.84;100.00;101123.53;5117632;28;20304;-56
2022/12/25 07:40:34;;;;;;;13.20;4.85;;;;;;;12.94;100.00;101128.50;5120502;28;20087;-53
2022/12/25 07:43:00;;;;;;;19.40;4.93;;;;;;;13.00;100.00;101112.41;5115796;28;20063;-56
2022/12/25 07:45:25;;;;;;;11.97;4.83;;;;;;;12.86;100.00;101126.81;5119418;28;20032;-56
2022/12/25 07:47:51;;;;;;;10.95;4.78;;;;;;;12.90;100.00;101123.53;5117098;28;20024;-56
2022/12/25 07:50:16;;;;;;;11.50;5.07;;;;;;;12.67;100.00;101121.22;5121428;28;20111;-55
2022/12/25 07:52:42;;;;;;;10.43;4.77;;;;;;;12.66;100.00;101121.44;5121880;28;20271;-55
2022/12/25 07:55:08;;;;;;;16.83;5.93;;;;;;;12.67;100.00;101113.16;5123051;28;20036;-58
2022/12/25 07:57:35;;;;;;;19.60;5.75;;;;;;;12.71;100.00;101111.75;5117766;28;20024;-54
2022/12/25 08:00:03;;;;;;;9.50;4.33;;;;;;;12.84;100.00;101118.16;5114469;28;20092;-57
2022/12/25 08:02:37;;;;;;;11.63;4.97;;;;;;;12.73;100.00;101122.25;5115162;28;20332;-56
2022/12/25 08:05:03;;;;;;;17.60;5.38;;;;;;;12.68;100.00;101130.91;5117838;28;20272;-56
2022/12/25 08:07:28;;;;;;;12.43;4.70;;;;;;;12.81;100.00;101140.88;5118890;28;20105;-56
2022/12/25 08:09:53;;;;;;;9.57;5.20;;;;;;;12.60;100.00;101144.53;5123068;28;20043;-56
2022/12/25 08:12:19;;;;;;;12.77;4.85;;;;;;;12.65;100.00;101150.09;5122282;28;20036;-54
2022/12/25 08:14:44;;;;;;;15.77;5.43;;;;;;;12.57;100.00;101145.78;5125742;28;20032;-52
2022/12/25 08:17:10;;;;;;;10.10;4.87;;;;;;;12.57;100.00;101151.13;5126183;28;20290;-54
2022/12/25 08:19:35;;;;;;;9.63;4.85;;;;;;;12.63;100.00;101152.16;5122436;28;20032;-54
2022/12/25 08:22:01;;;;;;;13.40;5.33;;;;;;;12.58;100.00;101162.69;5121228;28;20035;-52
2022/12/25 08:24:26;;;;;;;10.47;4.80;;;;;;;12.96;100.00;101164.88;5119271;28;20268;-54
2022/12/25 08:26:52;;;;;;;14.17;5.10;;;;;;;13.17;100.00;101163.03;5120168;28;20028;-51
2022/12/25 08:29:17;;;;;;;12.40;4.57;;;;;;;12.93;100.00;101143.78;5119782;28;20269;-55
2022/12/25 08:31:43;;;;;;;15.48;5.80;;;;;;;12.95;100.00;101144.41;5122693;28;20066;-53
2022/12/25 08:34:10;;;;;;;11.02;4.80;;;;;;;12.92;100.00;101147.50;5126464;28;20044;-55
2022/12/25 08:36:36;;;;;;;14.07;5.32;;;;;;;12.85;100.00;101136.75;5118453;28;20101;-55
2022/12/25 08:39:02;;;;;;;;;;;;;;;12.84;100.00;101135.09;5119599;28;20077;-57
2022/12/25 08:41:28;;;;;;;17.80;5.03;;;;;;;12.82;100.00;101130.97;5120314;28;19934;-54
2022/12/25 08:43:53;;;;;;;11.57;5.70;;;;;;;12.98;100.00;101137.78;5123835;28;20288;-53
2022/12/25 08:46:19;;;;;;;15.50;5.38;;;;;;;12.83;100.00;101140.66;5128163;28;20039;-57
2022/12/25 08:48:46;;;;;;;11.23;4.73;;;;;;;13.00;100.00;101128.53;5101253;28;20040;-55
2022/12/25 08:51:15;;;;;;;17.07;6.00;;;;;;;13.07;100.00;101143.81;5123352;28;20036;-53
2022/12/25 08:53:43;;;;;;;14.80;5.40;;;;;;;12.90;100.00;101138.81;5123700;28;20272;-55
2022/12/25 08:56:08;;;;;;;11.60;5.13;;;;;;;13.11;100.00;101156.63;5118809;28;20273;-56
2022/12/25 08:58:35;;;;;;;11.55;5.25;;;;;;;13.09;100.00;101147.09;5119380;28;20328;-54
2022/12/25 09:01:01;;;;;;;12.45;4.45;;;;;;;12.76;100.00;101138.78;5122917;28;20046;-57
2022/12/25 09:03:26;;;;;;;12.38;5.90;;;;;;;12.72;100.00;101129.50;5119114;28;20036;-52
2022/12/25 09:05:53;;;;;;;14.57;5.45;;;;;;;12.80;100.00;101141.06;5123170;28;20036;-55
2022/12/25 09:08:20;;;;;;;13.07;4.90;;;;;;;12.87;100.00;101139.22;5123630;28;20087;-56
2022/12/25 09:10:47;;;;;;;9.37;4.90;;;;;;;12.91;100.00;101140.47;5124598;28;20104;-54
2022/12/25 09:13:13;;;;;;;15.77;5.90;;;;;;;12.89;100.00;101127.25;5122766;28;20278;-54
2022/12/25 09:15:39;;;;;;;12.32;5.00;;;;;;;12.84;100.00;101136.94;5122555;28;20035;-56
2022/12/25 09:18:05;;;;;;;11.93;4.95;;;;;;;12.96;100.00;101138.00;5126027;28;20057;-54
2022/12/25 09:20:31;;;;;;;15.35;5.65;;;;;;;12.84;100.00;101143.16;5102879;28;20046;-54
2022/12/25 09:22:57;;;;;;;15.70;5.55;;;;;;;13.16;100.00;101142.59;5125728;28;20057;-55
2022/12/25 09:25:22;;;;;;;18.73;6.50;;;;;;;13.14;100.00;101133.88;5119626;28;20121;-52
2022/12/25 09:27:48;;;;;;;17.53;6.03;;;;;;;13.11;100.00;101139.66;5101025;28;20035;-54
2022/12/25 09:30:13;;;;;;;17.77;5.77;;;;;;;13.31;100.00;101143.19;5126395;28;20371;-57
2022/12/25 09:32:39;;;;;;;13.00;5.60;;;;;;;13.16;100.00;101150.66;5123349;28;20039;-56
2022/12/25 09:35:06;;;;;;;17.73;6.27;;;;;;;13.27;100.00;101155.41;5124145;28;20032;-54
2022/12/25 09:37:31;;;;;;;20.87;6.77;;;;;;;13.17;100.00;101174.59;5126475;28;20050;-53
2022/12/25 09:39:57;;;;;;;20.93;7.60;;;;;;;13.30;100.00;101159.53;5122485;28;20272;-57
2022/12/25 09:42:27;;;;;;;18.42;8.15;;;;;;;13.28;100.00;101162.41;5126256;28;20042;-54
2022/12/25 09:45:13;;;;;;;15.67;6.33;;;;;;;13.39;100.00;101152.09;5122245;28;20055;-54
2022/12/25 09:47:42;;;;;;;18.70;6.47;;;;;;;13.39;100.00;101149.41;5124920;28;20271;-55
2022/12/25 09:50:18;;;;;;;14.67;7.00;;;;;;;13.25;100.00;101138.66;5101685;28;20284;-55
2022/12/25 09:53:28;;;;;;;18.00;6.97;;;;;;;13.39;100.00;101131.44;5119837;28;20268;-52
2022/12/25 09:56:11;;;;;;;17.60;7.00;;;;;;;13.40;100.00;101127.69;5039347;28;20343;-53
2022/12/25 09:58:37;;;;;;;17.50;7.50;;;;;;;13.30;100.00;101108.50;5038582;28;20263;-56
2022/12/25 10:01:36;;;;;;;19.95;7.10;;;;;;;13.37;100.00;101116.53;5087508;28;20306;-55
2022/12/25 10:04:23;;;;;;;23.80;8.27;;;;;;;13.40;100.00;101122.34;5115371;28;20040;-52
2022/12/25 10:07:08;;;;;;;16.80;7.50;;;;;;;13.45;100.00;101124.44;5122303;28;20261;-53
2022/12/25 10:10:06;;;;;;;20.93;7.37;;;;;;;13.37;100.00;101120.06;5120452;28;20042;-57
2022/12/25 10:12:44;;;;;;;14.90;7.13;;;;;;;13.45;100.00;101102.94;5119344;28;20284;-53
2022/12/25 10:15:27;;;;;;;19.07;6.90;;;;;;;13.41;100.00;101099.00;5122363;28;20256;-55
2022/12/25 10:18:12;;;;;;;16.93;6.80;;;;;;;13.31;100.00;101096.72;5122529;28;20295;-57
2022/12/25 10:20:46;;;;;;;22.77;6.33;;;;;;;13.43;100.00;101094.28;5115467;28;20264;-57
2022/12/25 10:23:43;;;;;;;15.03;7.63;;;;;;;13.25;100.00;101086.78;5126311;28;20268;-55
2022/12/25 10:26:14;;;;;;;14.05;7.20;;;;;;;13.06;100.00;101102.72;5089999;28;20257;-57
2022/12/25 10:29:04;;;;;;;23.37;8.03;;;;;;;13.01;100.00;101091.75;5117804;28;20091;-55
2022/12/25 10:31:34;;;;;;;16.60;8.60;;;;;;;13.15;100.00;101087.22;5121432;28;20425;-56
2022/12/25 10:34:02;;;;;;;22.67;7.43;;;;;;;13.22;100.00;101076.47;5122774;28;20273;-52
2022/12/25 10:36:29;;;;;;;23.07;7.87;;;;;;;13.31;100.00;101086.78;5119553;28;20319;-57
2022/12/25 10:38:55;;;;;;;23.73;8.83;;;;;;;13.43;100.00;101083.53;5116251;28;20272;-58
2022/12/25 10:41:42;;;;;;;23.65;8.90;;;;;;;13.37;100.00;101087.00;5117949;28;20271;-58
2022/12/25 10:44:19;;;;;;;24.08;7.88;;;;;;;13.51;100.00;101085.16;5116948;28;20096;-56
2022/12/25 10:46:49;;;;;;;15.05;7.82;;;;;;;13.39;100.00;101095.69;5116517;28;20091;-54
2022/12/25 10:49:16;;;;;;;32.37;8.40;;;;;;;13.52;100.00;101084.13;5118924;28;20036;-54
2022/12/25 10:51:41;;;;;;;27.10;8.83;;;;;;;13.40;100.00;101065.09;5115825;28;20280;-54
2022/12/25 10:54:18;;;;;;;21.80;8.02;;;;;;;13.28;100.00;101064.91;5117291;28;20276;-53
2022/12/25 10:57:14;;;;;;;15.80;7.53;;;;;;;13.26;100.00;101069.63;5113841;28;20039;-58
2022/12/25 10:59:55;;;;;;;19.40;7.77;;;;;;;13.21;100.00;101064.91;5114136;28;20027;-57
2022/12/25 11:02:48;;;;;;;18.00;8.67;;;;;;;13.27;100.00;101058.69;5116103;28;20261;-54
2022/12/25 11:05:34;;;;;;;17.60;8.40;;;;;;;13.59;100.00;101047.31;5114314;28;20315;-55
2022/12/25 11:08:02;;;;;;;21.37;9.10;;;;;;;13.60;100.00;101035.53;5120943;28;20275;-52
2022/12/25 11:10:35;;;;;;;17.40;8.57;;;;;;;13.73;100.00;101015.84;5121836;28;20300;-55
2022/12/25 11:13:03;;;;;;;43.00;8.97;;;;;;;13.75;100.00;101021.84;5116380;28;20669;-57
2022/12/25 11:15:40;;;;;;;19.30;8.93;;;;;;;13.67;100.00;101011.34;5114792;28;20287;-57
2022/12/25 11:18:18;;;;;;;23.15;8.82;;;;;;;13.70;100.00;101005.53;5117969;28;20276;-55
2022/12/25 11:21:01;;;;;;;20.83;8.37;;;;;;;13.34;100.00;101016.53;5116070;28;20039;-53
2022/12/25 11:23:30;;;;;;;19.23;8.23;;;;;;;13.50;100.00;101003.72;5114585;28;20260;-55
2022/12/25 11:26:06;;;;;;;24.93;8.67;;;;;;;13.48;100.00;101000.44;5100130;28;20265;-56
2022/12/25 11:28:34;;;;;;;21.30;7.73;;;;;;;13.41;100.00;100989.66;5114729;28;20276;-55
2022/12/25 11:31:05;;;;;;;15.37;6.90;;;;;;;13.24;100.00;100977.72;5117518;28;20288;-56
2022/12/25 11:33:41;;;;;;;17.43;8.07;;;;;;;13.22;100.00;100977.09;5119761;28;20287;-55
2022/12/25 11:36:31;;;;;;;21.27;7.73;;;;;;;13.32;100.00;100964.88;5090817;28;20287;-56
2022/12/25 11:39:08;;;;;;;24.33;7.27;;;;;;;13.46;100.00;100963.03;5110642;28;20324;-53
2022/12/25 11:41:37;;;;;;;18.52;7.53;;;;;;;13.29;100.00;100964.50;5110606;28;20335;-54
2022/12/25 11:44:39;;;;;;;15.53;7.73;;;;;;;13.31;100.00;100963.25;5114734;28;20118;-55
2022/12/25 11:47:14;;;;;;;19.47;7.73;;;;;;;13.53;100.00;100960.31;5116670;28;20285;-57
2022/12/25 11:49:49;;;;;;;17.67;8.23;;;;;;;13.41;100.00;100962.00;5114316;28;20264;-55
2022/12/25 11:52:17;;;;;;;14.67;7.67;;;;;;;13.45;100.00;100964.06;5114779;28;20261;-54
2022/12/25 11:55:00;;;;;;;19.87;8.77;;;;;;;13.37;100.00;100963.44;5116820;28;20268;-57
2022/12/25 11:57:28;;;;;;;25.20;8.13;;;;;;;13.52;100.00;100957.84;5115202;28;20279;-56
2022/12/25 12:00:02;;;;;;;16.87;7.67;;;;;;;13.53;100.00;100960.31;5120753;28;20257;-59
2022/12/25 12:02:45;;;;;;;22.37;8.90;;;;;;;13.54;100.00;100953.91;5115151;28;20248;-57
2022/12/25 12:05:18;;;;;;;15.27;7.60;;;;;;;13.69;100.00;100958.19;5115564;28;20282;-55
2022/12/25 12:07:56;;;;;;;18.23;8.03;;;;;;;13.76;100.00;100949.06;5119015;28;20304;-56
2022/12/25 12:10:56;;;;;;;16.63;7.63;;;;;;;13.83;100.00;100946.34;5117834;28;20272;-54
2022/12/25 12:13:59;;;;;;;21.40;10.30;;;;;;;13.73;100.00;100938.75;5103798;28;20283;-55
2022/12/25 12:16:25;;;;;;;18.60;9.17;;;;;;;13.81;100.00;100937.66;5116008;28;20272;-56
2022/12/25 12:18:51;;;;;;;24.67;9.68;;;;;;;13.81;100.00;100940.34;5112575;28;20290;-55
2022/12/25 12:21:27;;;;;;;17.20;8.43;;;;;;;13.94;100.00;100934.06;5122291;28;20084;-55
2022/12/25 12:24:10;;;;;;;19.37;8.80;;;;;;;13.70;100.00;100930.28;5117891;28;20024;-59
2022/12/25 12:26:39;;;;;;;20.63;9.50;;;;;;;13.51;100.00;100930.16;5116683;28;20282;-56
2022/12/25 12:29:19;;;;;;;19.60;8.43;;;;;;;13.69;100.00;100934.00;5112107;28;20268;-57
2022/12/25 12:31:47;;;;;;;24.50;8.63;;;;;;;13.82;100.00;100933.13;5117829;28;20288;-56
2022/12/25 12:34:29;;;;;;;16.87;8.40;;;;;;;13.79;100.00;100926.31;5119884;28;20291;-56
2022/12/25 12:37:06;;;;;;;17.80;8.00;;;;;;;13.88;100.00;100925.03;5116269;28;20269;-57
2022/12/25 12:39:40;;;;;;;18.17;8.03;;;;;;;13.79;100.00;100920.13;5116347;28;20276;-57
2022/12/25 12:42:16;;;;;;;17.00;7.90;;;;;;;13.89;100.00;100912.41;5117204;28;20280;-56
2022/12/25 12:44:43;;;;;;;13.03;7.60;;;;;;;13.93;100.00;100910.91;5112952;28;20275;-57
2022/12/25 12:47:28;;;;;;;22.57;8.70;;;;;;;14.01;100.00;100916.06;5117417;28;20294;-59
2022/12/25 12:49:58;;;;;;;14.80;8.60;;;;;;;13.96;100.00;100907.00;5118041;28;20294;-54
2022/12/25 12:52:34;;;;;;;19.13;9.43;;;;;;;14.12;100.00;100902.94;5122231;28;20296;-56
2022/12/25 12:55:00;;;;;;;26.10;8.80;;;;;;;14.14;100.00;100908.94;5115109;28;20263;-58
2022/12/25 12:57:31;;;;;;;22.70;10.47;;;;;;;14.18;100.00;100907.44;5101673;28;20284;-57
2022/12/25 12:59:58;;;;;;;23.37;9.67;;;;;;;14.19;100.00;100909.94;5117900;28;20305;-56
2022/12/25 13:02:49;;;;;;;22.40;8.77;;;;;;;13.94;100.00;100901.00;5122976;28;20272;-58
2022/12/25 13:05:46;;;;;;;20.77;10.73;;;;;;;14.18;100.00;100899.38;5117513;28;20265;-56